Station Historical Data
Daily Summary for January 21, 2017 Units:  Both    English   Metric
« Previous Day
Next Day »
Daily Weekly Monthly Yearly Custom
  High: Low: Average:
Temperature: 60.9 °F /  16.1 °C 39.6 °F /  4.2 °C 48.5 °F /  9.2 °C
Dew Point: 52.4 °F /  11.3 °C 38.3 °F /  3.5 °C 45.5 °F /  7.5 °C
Humidity: 97% 71% 90%
Wind Speed: 6.0mph /  9.7km/h - 1mph /  1.6km/h
Wind Gust: 13.0mph /  20.9km/h - -
Wind- - SSE
Pressure: 29.84 in /  1010.4 hPa 29.67 in /  1004.6 hPa -
Precipitation: 0.00 in /  0 mm    
Historical Graphs
 
 
Tabular Data for January 21, 2017
Time Temperature Dew Point Pressure Wind Wind Speed Wind Gust Humidity Rainfall Rate (Hourly)
00:04 41.7 °F /  5.4 °C 40.4 °F /  4.7 °C 29.80in /  1009hPa WSW 5.0mph /  8km/h 9.0mph /  14.5km/h 95% 0.00in /  0mm
00:09 41.5 °F /  5.3 °C 40.2 °F /  4.6 °C 29.80in /  1009hPa WSW 6.0mph /  9.7km/h 11.0mph /  17.7km/h 95% 0.00in /  0mm
00:14 41.4 °F /  5.2 °C 40.1 °F /  4.5 °C 29.81in /  1009.4hPa WSW 6.0mph /  9.7km/h 13.0mph /  20.9km/h 95% 0.00in /  0mm
00:19 41.3 °F /  5.2 °C 40.0 °F /  4.4 °C 29.81in /  1009.4hPa SW 4.0mph /  6.4km/h 11.0mph /  17.7km/h 95% 0.00in /  0mm
00:24 41.3 °F /  5.2 °C 40.0 °F /  4.4 °C 29.81in /  1009.4hPa SSW 5.0mph /  8km/h 8.0mph /  12.9km/h 95% 0.00in /  0mm
00:29 41.1 °F /  5.1 °C 39.8 °F /  4.3 °C 29.81in /  1009.4hPa WSW 5.0mph /  8km/h 11.0mph /  17.7km/h 95% 0.00in /  0mm
00:34 40.9 °F /  4.9 °C 39.6 °F /  4.2 °C 29.81in /  1009.4hPa SW 3.0mph /  4.8km/h 9.0mph /  14.5km/h 95% 0.00in /  0mm
00:39 40.7 °F /  4.8 °C 39.4 °F /  4.1 °C 29.81in /  1009.4hPa SW 5.0mph /  8km/h 9.0mph /  14.5km/h 95% 0.00in /  0mm
00:44 40.6 °F /  4.8 °C 39.3 °F /  4.1 °C 29.81in /  1009.4hPa SW 5.0mph /  8km/h 9.0mph /  14.5km/h 95% 0.00in /  0mm
00:49 40.5 °F /  4.7 °C 39.2 °F /  4 °C 29.81in /  1009.4hPa WSW 5.0mph /  8km/h 9.0mph /  14.5km/h 95% 0.00in /  0mm
00:54 40.4 °F /  4.7 °C 39.1 °F /  3.9 °C 29.81in /  1009.4hPa SW 5.0mph /  8km/h 9.0mph /  14.5km/h 95% 0.00in /  0mm
00:59 40.5 °F /  4.7 °C 39.2 °F /  4 °C 29.81in /  1009.4hPa WSW 4.0mph /  6.4km/h 7.0mph /  11.3km/h 95% 0.00in /  0mm
01:04 40.6 °F /  4.8 °C 39.3 °F /  4.1 °C 29.82in /  1009.7hPa WSW 6.0mph /  9.7km/h 6.0mph /  9.7km/h 95% 0.00in /  0mm
01:09 40.5 °F /  4.7 °C 39.2 °F /  4 °C 29.82in /  1009.7hPa SSW 2.0mph /  3.2km/h 8.0mph /  12.9km/h 95% 0.00in /  0mm
01:14 40.5 °F /  4.7 °C 39.2 °F /  4 °C 29.82in /  1009.7hPa SW 5.0mph /  8km/h 8.0mph /  12.9km/h 95% 0.00in /  0mm
01:19 40.5 °F /  4.7 °C 39.2 °F /  4 °C 29.82in /  1009.7hPa SSW 4.0mph /  6.4km/h 6.0mph /  9.7km/h 95% 0.00in /  0mm
01:24 40.5 °F /  4.7 °C 39.2 °F /  4 °C 29.82in /  1009.7hPa SSW 5.0mph /  8km/h 7.0mph /  11.3km/h 95% 0.00in /  0mm
01:29 40.5 °F /  4.7 °C 39.2 °F /  4 °C 29.83in /  1010hPa SW 5.0mph /  8km/h 11.0mph /  17.7km/h 95% 0.00in /  0mm
01:34 40.5 °F /  4.7 °C 39.2 °F /  4 °C 29.83in /  1010hPa South 2.0mph /  3.2km/h 6.0mph /  9.7km/h 95% 0.00in /  0mm
01:39 40.4 °F /  4.7 °C 39.1 °F /  3.9 °C 29.83in /  1010hPa SW 4.0mph /  6.4km/h 6.0mph /  9.7km/h 95% 0.00in /  0mm
01:44 40.3 °F /  4.6 °C 39.0 °F /  3.9 °C 29.83in /  1010hPa SW 4.0mph /  6.4km/h 8.0mph /  12.9km/h 95% 0.00in /  0mm
01:49 40.2 °F /  4.6 °C 38.9 °F /  3.8 °C 29.83in /  1010hPa SW 4.0mph /  6.4km/h 8.0mph /  12.9km/h 95% 0.00in /  0mm
01:54 40.0 °F /  4.4 °C 38.7 °F /  3.7 °C 29.83in /  1010hPa SW 4.0mph /  6.4km/h 6.0mph /  9.7km/h 95% 0.00in /  0mm
01:59 39.9 °F /  4.4 °C 38.6 °F /  3.7 °C 29.83in /  1010hPa SW 3.0mph /  4.8km/h 6.0mph /  9.7km/h 95% 0.00in /  0mm
02:04 39.8 °F /  4.3 °C 38.5 °F /  3.6 °C 29.83in /  1010hPa SW 4.0mph /  6.4km/h 6.0mph /  9.7km/h 95% 0.00in /  0mm
02:09 39.7 °F /  4.3 °C 38.4 °F /  3.6 °C 29.83in /  1010hPa SW 3.0mph /  4.8km/h 7.0mph /  11.3km/h 95% 0.00in /  0mm
02:14 39.7 °F /  4.3 °C 38.4 °F /  3.6 °C 29.84in /  1010.4hPa SW 4.0mph /  6.4km/h 7.0mph /  11.3km/h 95% 0.00in /  0mm
02:19 39.7 °F /  4.3 °C 38.4 °F /  3.6 °C 29.84in /  1010.4hPa SW 4.0mph /  6.4km/h 7.0mph /  11.3km/h 95% 0.00in /  0mm
02:24 39.6 °F /  4.2 °C 38.3 °F /  3.5 °C 29.84in /  1010.4hPa SW 3.0mph /  4.8km/h 7.0mph /  11.3km/h 95% 0.00in /  0mm
02:29 39.7 °F /  4.3 °C 38.4 °F /  3.6 °C 29.84in /  1010.4hPa SW 5.0mph /  8km/h 5.0mph /  8km/h 95% 0.00in /  0mm
02:34 39.8 °F /  4.3 °C 38.5 °F /  3.6 °C 29.84in /  1010.4hPa WSW 3.0mph /  4.8km/h 5.0mph /  8km/h 95% 0.00in /  0mm
02:39 39.8 °F /  4.3 °C 38.5 °F /  3.6 °C 29.84in /  1010.4hPa SW 1.0mph /  1.6km/h 4.0mph /  6.4km/h 95% 0.00in /  0mm
02:44 39.9 °F /  4.4 °C 38.6 °F /  3.7 °C 29.83in /  1010hPa WSW 2.0mph /  3.2km/h 4.0mph /  6.4km/h 95% 0.00in /  0mm
02:49 40.0 °F /  4.4 °C 38.7 °F /  3.7 °C 29.83in /  1010hPa WSW 3.0mph /  4.8km/h 6.0mph /  9.7km/h 95% 0.00in /  0mm
02:54 40.1 °F /  4.5 °C 38.8 °F /  3.8 °C 29.84in /  1010.4hPa SW 3.0mph /  4.8km/h 6.0mph /  9.7km/h 95% 0.00in /  0mm
02:59 40.2 °F /  4.6 °C 38.9 °F /  3.8 °C 29.84in /  1010.4hPa SW 3.0mph /  4.8km/h 5.0mph /  8km/h 95% 0.00in /  0mm
03:04 40.3 °F /  4.6 °C 39.3 °F /  4.1 °C 29.84in /  1010.4hPa SW 6.0mph /  9.7km/h 7.0mph /  11.3km/h 96% 0.00in /  0mm
03:09 40.4 °F /  4.7 °C 39.4 °F /  4.1 °C 29.84in /  1010.4hPa WSW 4.0mph /  6.4km/h 7.0mph /  11.3km/h 96% 0.00in /  0mm
03:14 40.5 °F /  4.7 °C 39.4 °F /  4.1 °C 29.84in /  1010.4hPa WSW 3.0mph /  4.8km/h 6.0mph /  9.7km/h 96% 0.00in /  0mm
03:19 40.6 °F /  4.8 °C 39.5 °F /  4.2 °C 29.84in /  1010.4hPa WSW 3.0mph /  4.8km/h 7.0mph /  11.3km/h 96% 0.00in /  0mm
03:24 40.7 °F /  4.8 °C 39.6 °F /  4.2 °C 29.83in /  1010hPa WSW 4.0mph /  6.4km/h 7.0mph /  11.3km/h 96% 0.00in /  0mm
03:29 40.7 °F /  4.8 °C 39.6 °F /  4.2 °C 29.83in /  1010hPa SW 4.0mph /  6.4km/h 6.0mph /  9.7km/h 96% 0.00in /  0mm
03:34 40.8 °F /  4.9 °C 39.7 °F /  4.3 °C 29.83in /  1010hPa WSW 3.0mph /  4.8km/h 5.0mph /  8km/h 96% 0.00in /  0mm
03:39 40.9 °F /  4.9 °C 39.8 °F /  4.3 °C 29.83in /  1010hPa WSW 2.0mph /  3.2km/h 4.0mph /  6.4km/h 96% 0.00in /  0mm
03:44 40.9 °F /  4.9 °C 39.8 °F /  4.3 °C 29.83in /  1010hPa SW 3.0mph /  4.8km/h 5.0mph /  8km/h 96% 0.00in /  0mm
03:49 41.0 °F /  5 °C 39.9 °F /  4.4 °C 29.83in /  1010hPa SW 2.0mph /  3.2km/h 5.0mph /  8km/h 96% 0.00in /  0mm
03:54 41.1 °F /  5.1 °C 40.0 °F /  4.4 °C 29.83in /  1010hPa WSW 2.0mph /  3.2km/h 4.0mph /  6.4km/h 96% 0.00in /  0mm
03:59 41.2 °F /  5.1 °C 40.1 °F /  4.5 °C 29.83in /  1010hPa Calm   3.0mph /  4.8km/h 96% 0.00in /  0mm
04:04 41.3 °F /  5.2 °C 40.2 °F /  4.6 °C 29.83in /  1010hPa WSW 3.0mph /  4.8km/h 3.0mph /  4.8km/h 96% 0.00in /  0mm
04:09 41.3 °F /  5.2 °C 40.2 °F /  4.6 °C 29.83in /  1010hPa West 4.0mph /  6.4km/h 4.0mph /  6.4km/h 96% 0.00in /  0mm
04:14 41.4 °F /  5.2 °C 40.3 °F /  4.6 °C 29.83in /  1010hPa SW 2.0mph /  3.2km/h 4.0mph /  6.4km/h 96% 0.00in /  0mm
04:19 41.5 °F /  5.3 °C 40.4 °F /  4.7 °C 29.82in /  1009.7hPa SW 1.0mph /  1.6km/h 4.0mph /  6.4km/h 96% 0.00in /  0mm
04:24 41.5 °F /  5.3 °C 40.4 °F /  4.7 °C 29.82in /  1009.7hPa SSW 1.0mph /  1.6km/h 3.0mph /  4.8km/h 96% 0.00in /  0mm
04:29 41.6 °F /  5.3 °C 40.5 °F /  4.7 °C 29.82in /  1009.7hPa SSW 1.0mph /  1.6km/h 3.0mph /  4.8km/h 96% 0.00in /  0mm
04:34 41.6 °F /  5.3 °C 40.5 °F /  4.7 °C 29.82in /  1009.7hPa SSW 1.0mph /  1.6km/h 2.0mph /  3.2km/h 96% 0.00in /  0mm
04:39 41.6 °F /  5.3 °C 40.5 °F /  4.7 °C 29.82in /  1009.7hPa Calm   2.0mph /  3.2km/h 96% 0.00in /  0mm
04:44 41.7 °F /  5.4 °C 40.6 °F /  4.8 °C 29.82in /  1009.7hPa SSW 1.0mph /  1.6km/h 3.0mph /  4.8km/h 96% 0.00in /  0mm
04:49 41.8 °F /  5.4 °C 40.7 °F /  4.8 °C 29.82in /  1009.7hPa SSW 1.0mph /  1.6km/h 3.0mph /  4.8km/h 96% 0.00in /  0mm
04:54 41.8 °F /  5.4 °C 40.7 °F /  4.8 °C 29.81in /  1009.4hPa SSW 1.0mph /  1.6km/h 3.0mph /  4.8km/h 96% 0.00in /  0mm
04:59 41.9 °F /  5.5 °C 40.8 °F /  4.9 °C 29.81in /  1009.4hPa SSW 1.0mph /  1.6km/h 3.0mph /  4.8km/h 96% 0.00in /  0mm
05:04 42.0 °F /  5.6 °C 40.9 °F /  4.9 °C 29.81in /  1009.4hPa Calm   1.0mph /  1.6km/h 96% 0.00in /  0mm
05:09 42.1 °F /  5.6 °C 41.0 °F /  5 °C 29.82in /  1009.7hPa SW 2.0mph /  3.2km/h 3.0mph /  4.8km/h 96% 0.00in /  0mm
05:14 42.2 °F /  5.7 °C 41.1 °F /  5.1 °C 29.82in /  1009.7hPa SW 1.0mph /  1.6km/h 3.0mph /  4.8km/h 96% 0.00in /  0mm
05:19 42.3 °F /  5.7 °C 41.2 °F /  5.1 °C 29.82in /  1009.7hPa Calm   3.0mph /  4.8km/h 96% 0.00in /  0mm
05:24 42.3 °F /  5.7 °C 41.2 °F /  5.1 °C 29.82in /  1009.7hPa Calm     96% 0.00in /  0mm
05:29 42.4 °F /  5.8 °C 41.3 °F /  5.2 °C 29.81in /  1009.4hPa Calm     96% 0.00in /  0mm
05:34 42.4 °F /  5.8 °C 41.3 °F /  5.2 °C 29.81in /  1009.4hPa Calm     96% 0.00in /  0mm
05:39 42.4 °F /  5.8 °C 41.3 °F /  5.2 °C 29.81in /  1009.4hPa Calm     96% 0.00in /  0mm
05:44 42.4 °F /  5.8 °C 41.3 °F /  5.2 °C 29.82in /  1009.7hPa Calm     96% 0.00in /  0mm
05:49 42.4 °F /  5.8 °C 41.3 °F /  5.2 °C 29.82in /  1009.7hPa Calm     96% 0.00in /  0mm
05:54 42.4 °F /  5.8 °C 41.3 °F /  5.2 °C 29.82in /  1009.7hPa Calm     96% 0.00in /  0mm
05:59 42.5 °F /  5.8 °C 41.4 °F /  5.2 °C 29.83in /  1010hPa Calm     96% 0.00in /  0mm
06:04 42.4 °F /  5.8 °C 41.3 °F /  5.2 °C 29.82in /  1009.7hPa Calm     96% 0.00in /  0mm
06:09 42.5 °F /  5.8 °C 41.4 °F /  5.2 °C 29.82in /  1009.7hPa Calm     96% 0.00in /  0mm
06:14 42.5 °F /  5.8 °C 41.4 °F /  5.2 °C 29.82in /  1009.7hPa Calm     96% 0.00in /  0mm
06:19 42.5 °F /  5.8 °C 41.4 °F /  5.2 °C 29.81in /  1009.4hPa Calm     96% 0.00in /  0mm
06:24 42.6 °F /  5.9 °C 41.5 °F /  5.3 °C 29.82in /  1009.7hPa Calm     96% 0.00in /  0mm
06:29 42.7 °F /  5.9 °C 41.6 °F /  5.3 °C 29.82in /  1009.7hPa Calm     96% 0.00in /  0mm
06:34 42.7 °F /  5.9 °C 41.6 °F /  5.3 °C 29.82in /  1009.7hPa Calm     96% 0.00in /  0mm
06:39 42.8 °F /  6 °C 41.7 °F /  5.4 °C 29.82in /  1009.7hPa Calm     96% 0.00in /  0mm
06:44 42.8 °F /  6 °C 41.7 °F /  5.4 °C 29.81in /  1009.4hPa Calm     96% 0.00in /  0mm
06:49 42.9 °F /  6.1 °C 41.8 °F /  5.4 °C 29.81in /  1009.4hPa Calm     96% 0.00in /  0mm
06:54 42.9 °F /  6.1 °C 41.8 °F /  5.4 °C 29.81in /  1009.4hPa Calm     96% 0.00in /  0mm
06:59 42.9 °F /  6.1 °C 41.8 °F /  5.4 °C 29.81in /  1009.4hPa Calm     96% 0.00in /  0mm
07:04 43.0 °F /  6.1 °C 41.9 °F /  5.5 °C 29.81in /  1009.4hPa Calm     96% 0.00in /  0mm
07:09 43.1 °F /  6.2 °C 42.0 °F /  5.6 °C 29.81in /  1009.4hPa Calm     96% 0.00in /  0mm
07:14 43.1 °F /  6.2 °C 42.0 °F /  5.6 °C 29.81in /  1009.4hPa Calm     96% 0.00in /  0mm
07:19 43.2 °F /  6.2 °C 42.1 °F /  5.6 °C 29.80in /  1009hPa SSE 3.0mph /  4.8km/h 4.0mph /  6.4km/h 96% 0.00in /  0mm
07:24 43.2 °F /  6.2 °C 42.1 °F /  5.6 °C 29.81in /  1009.4hPa South 1.0mph /  1.6km/h 4.0mph /  6.4km/h 96% 0.00in /  0mm
07:29 43.2 °F /  6.2 °C 42.1 °F /  5.6 °C 29.80in /  1009hPa South 1.0mph /  1.6km/h 3.0mph /  4.8km/h 96% 0.00in /  0mm
07:34 43.2 °F /  6.2 °C 42.1 °F /  5.6 °C 29.81in /  1009.4hPa Calm     96% 0.00in /  0mm
07:39 43.2 °F /  6.2 °C 42.1 °F /  5.6 °C 29.81in /  1009.4hPa Calm     96% 0.00in /  0mm
07:44 43.2 °F /  6.2 °C 42.1 °F /  5.6 °C 29.81in /  1009.4hPa Calm     96% 0.00in /  0mm
07:49 43.2 °F /  6.2 °C 42.1 °F /  5.6 °C 29.81in /  1009.4hPa Calm     96% 0.00in /  0mm
07:54 43.2 °F /  6.2 °C 42.1 °F /  5.6 °C 29.81in /  1009.4hPa Calm     96% 0.00in /  0mm
07:59 43.3 °F /  6.3 °C 42.2 °F /  5.7 °C 29.80in /  1009hPa Calm     96% 0.00in /  0mm
08:04 43.3 °F /  6.3 °C 42.2 °F /  5.7 °C 29.80in /  1009hPa Calm     96% 0.00in /  0mm
08:09 43.4 °F /  6.3 °C 42.3 °F /  5.7 °C 29.79in /  1008.7hPa Calm     96% 0.00in /  0mm
08:14 43.4 °F /  6.3 °C 42.3 °F /  5.7 °C 29.79in /  1008.7hPa Calm     96% 0.00in /  0mm
08:19 43.5 °F /  6.4 °C 42.4 °F /  5.8 °C 29.80in /  1009hPa Calm     96% 0.00in /  0mm
08:24 43.6 °F /  6.4 °C 42.5 °F /  5.8 °C 29.80in /  1009hPa Calm     96% 0.00in /  0mm
08:29 43.6 °F /  6.4 °C 42.5 °F /  5.8 °C 29.81in /  1009.4hPa Calm     96% 0.00in /  0mm
08:34 43.8 °F /  6.6 °C 42.7 °F /  5.9 °C 29.80in /  1009hPa Calm     96% 0.00in /  0mm
08:39 43.9 °F /  6.6 °C 42.8 °F /  6 °C 29.80in /  1009hPa NE 2.0mph /  3.2km/h 4.0mph /  6.4km/h 96% 0.00in /  0mm
08:44 44.1 °F /  6.7 °C 43.0 °F /  6.1 °C 29.80in /  1009hPa Calm   3.0mph /  4.8km/h 96% 0.00in /  0mm
08:49 44.2 °F /  6.8 °C 43.1 °F /  6.2 °C 29.79in /  1008.7hPa NE 1.0mph /  1.6km/h 4.0mph /  6.4km/h 96% 0.00in /  0mm
08:54 44.4 °F /  6.9 °C 43.6 °F /  6.4 °C 29.79in /  1008.7hPa NE 2.0mph /  3.2km/h 4.0mph /  6.4km/h 97% 0.00in /  0mm
08:59 44.5 °F /  6.9 °C 43.7 °F /  6.5 °C 29.80in /  1009hPa NE 2.0mph /  3.2km/h 4.0mph /  6.4km/h 97% 0.00in /  0mm
09:04 44.8 °F /  7.1 °C 43.7 °F /  6.5 °C 29.80in /  1009hPa NE 1.0mph /  1.6km/h 4.0mph /  6.4km/h 96% 0.00in /  0mm
09:09 44.9 °F /  7.2 °C 43.8 °F /  6.6 °C 29.79in /  1008.7hPa ENE 1.0mph /  1.6km/h 4.0mph /  6.4km/h 96% 0.00in /  0mm
09:14 45.0 °F /  7.2 °C 44.2 °F /  6.8 °C 29.79in /  1008.7hPa Calm     97% 0.00in /  0mm
09:19 45.1 °F /  7.3 °C 44.3 °F /  6.8 °C 29.79in /  1008.7hPa Calm   2.0mph /  3.2km/h 97% 0.00in /  0mm
09:24 45.2 °F /  7.3 °C 44.1 °F /  6.7 °C 29.80in /  1009hPa SSE 2.0mph /  3.2km/h 3.0mph /  4.8km/h 96% 0.00in /  0mm
09:29 45.3 °F /  7.4 °C 44.2 °F /  6.8 °C 29.80in /  1009hPa Calm   2.0mph /  3.2km/h 96% 0.00in /  0mm
09:34 45.4 °F /  7.4 °C 44.3 °F /  6.8 °C 29.80in /  1009hPa Calm     96% 0.00in /  0mm
09:39 45.8 °F /  7.7 °C 45.0 °F /  7.2 °C 29.80in /  1009hPa Calm     97% 0.00in /  0mm
09:44 45.8 °F /  7.7 °C 45.0 °F /  7.2 °C 29.79in /  1008.7hPa Calm     97% 0.00in /  0mm
09:49 45.9 °F /  7.7 °C 45.1 °F /  7.3 °C 29.80in /  1009hPa Calm     97% 0.00in /  0mm
09:54 45.9 °F /  7.7 °C 45.1 °F /  7.3 °C 29.80in /  1009hPa Calm     97% 0.00in /  0mm
09:59 46.5 °F /  8.1 °C 45.7 °F /  7.6 °C 29.79in /  1008.7hPa Calm     97% 0.00in /  0mm
10:04 46.7 °F /  8.2 °C 45.9 °F /  7.7 °C 29.79in /  1008.7hPa Calm     97% 0.00in /  0mm
10:09 46.7 °F /  8.2 °C 45.9 °F /  7.7 °C 29.79in /  1008.7hPa Calm     97% 0.00in /  0mm
10:14 46.9 °F /  8.3 °C 46.1 °F /  7.8 °C 29.80in /  1009hPa Calm     97% 0.00in /  0mm
10:19 46.9 °F /  8.3 °C 46.1 °F /  7.8 °C 29.80in /  1009hPa Calm     97% 0.00in /  0mm
10:24 47.8 °F /  8.8 °C 47.0 °F /  8.3 °C 29.78in /  1008.4hPa Calm     97% 0.00in /  0mm
10:29 48.2 °F /  9 °C 47.4 °F /  8.6 °C 29.78in /  1008.4hPa NE 1.0mph /  1.6km/h 4.0mph /  6.4km/h 97% 0.00in /  0mm
10:34 48.4 °F /  9.1 °C 47.6 °F /  8.7 °C 29.78in /  1008.4hPa NE 2.0mph /  3.2km/h 4.0mph /  6.4km/h 97% 0.00in /  0mm
10:39 48.7 °F /  9.3 °C 47.6 °F /  8.7 °C 29.77in /  1008hPa NE 2.0mph /  3.2km/h 3.0mph /  4.8km/h 96% 0.00in /  0mm
10:44 49.0 °F /  9.4 °C 47.9 °F /  8.8 °C 29.77in /  1008hPa Calm   3.0mph /  4.8km/h 96% 0.00in /  0mm
10:49 49.4 °F /  9.7 °C 48.0 °F /  8.9 °C 29.77in /  1008hPa Calm     95% 0.00in /  0mm
10:54 50.1 °F /  10.1 °C 48.4 °F /  9.1 °C 29.78in /  1008.4hPa Calm     94% 0.00in /  0mm
10:59 50.7 °F /  10.4 °C 48.7 °F /  9.3 °C 29.78in /  1008.4hPa Calm     93% 0.00in /  0mm
11:04 51.4 °F /  10.8 °C 48.9 °F /  9.4 °C 29.78in /  1008.4hPa Calm     91% 0.00in /  0mm
11:09 52.6 °F /  11.4 °C 49.4 °F /  9.7 °C 29.77in /  1008hPa Calm     89% 0.00in /  0mm
11:14 53.3 °F /  11.8 °C 49.8 °F /  9.9 °C 29.77in /  1008hPa Calm     88% 0.00in /  0mm
11:19 53.4 °F /  11.9 °C 49.6 °F /  9.8 °C 29.77in /  1008hPa Calm     87% 0.00in /  0mm
11:24 53.6 °F /  12 °C 49.5 °F /  9.7 °C 29.76in /  1007.7hPa Calm     86% 0.00in /  0mm
11:29 53.6 °F /  12 °C 49.5 °F /  9.7 °C 29.77in /  1008hPa Calm   1.0mph /  1.6km/h 86% 0.00in /  0mm
11:34 53.3 °F /  11.8 °C 49.2 °F /  9.6 °C 29.76in /  1007.7hPa WSW 1.0mph /  1.6km/h 3.0mph /  4.8km/h 86% 0.00in /  0mm
11:39 53.4 °F /  11.9 °C 49.3 °F /  9.6 °C 29.76in /  1007.7hPa WSW 1.0mph /  1.6km/h 3.0mph /  4.8km/h 86% 0.00in /  0mm
11:44 53.3 °F /  11.8 °C 49.2 °F /  9.6 °C 29.76in /  1007.7hPa West 1.0mph /  1.6km/h 2.0mph /  3.2km/h 86% 0.00in /  0mm
11:49 53.3 °F /  11.8 °C 48.9 °F /  9.4 °C 29.76in /  1007.7hPa Calm   1.0mph /  1.6km/h 85% 0.00in /  0mm
11:54 53.5 °F /  11.9 °C 49.1 °F /  9.5 °C 29.76in /  1007.7hPa WSW 1.0mph /  1.6km/h 3.0mph /  4.8km/h 85% 0.00in /  0mm
11:59 53.6 °F /  12 °C 49.2 °F /  9.6 °C 29.76in /  1007.7hPa WSW 1.0mph /  1.6km/h 3.0mph /  4.8km/h 85% 0.00in /  0mm
12:04 53.6 °F /  12 °C 49.2 °F /  9.6 °C 29.76in /  1007.7hPa Calm   2.0mph /  3.2km/h 85% 0.00in /  0mm
12:09 54.4 °F /  12.4 °C 50.0 °F /  10 °C 29.75in /  1007.3hPa Calm     85% 0.00in /  0mm
12:14 54.3 °F /  12.4 °C 49.6 °F /  9.8 °C 29.75in /  1007.3hPa Calm     84% 0.00in /  0mm
12:19 54.6 °F /  12.6 °C 50.2 °F /  10.1 °C 29.75in /  1007.3hPa Calm     85% 0.00in /  0mm
12:24 54.6 °F /  12.6 °C 49.9 °F /  9.9 °C 29.74in /  1007hPa Calm     84% 0.00in /  0mm
12:29 54.7 °F /  12.6 °C 50.0 °F /  10 °C 29.73in /  1006.7hPa Calm     84% 0.00in /  0mm
12:34 54.7 °F /  12.6 °C 50.3 °F /  10.2 °C 29.73in /  1006.7hPa Calm     85% 0.00in /  0mm
12:39 54.9 °F /  12.7 °C 50.2 °F /  10.1 °C 29.73in /  1006.7hPa Calm     84% 0.00in /  0mm
12:44 55.2 °F /  12.9 °C 50.1 °F /  10.1 °C 29.73in /  1006.7hPa Calm     83% 0.00in /  0mm
12:49 55.6 °F /  13.1 °C 50.5 °F /  10.3 °C 29.73in /  1006.7hPa Calm   2.0mph /  3.2km/h 83% 0.00in /  0mm
12:54 55.6 °F /  13.1 °C 50.5 °F /  10.3 °C 29.73in /  1006.7hPa Calm     83% 0.00in /  0mm
12:59 55.9 °F /  13.3 °C 50.5 °F /  10.3 °C 29.73in /  1006.7hPa Calm     82% 0.00in /  0mm
13:04 55.9 °F /  13.3 °C 50.2 °F /  10.1 °C 29.73in /  1006.7hPa Calm     81% 0.00in /  0mm
13:09 56.2 °F /  13.4 °C 51.1 °F /  10.6 °C 29.72in /  1006.3hPa Calm     83% 0.00in /  0mm
13:14 56.3 °F /  13.5 °C 50.5 °F /  10.3 °C 29.72in /  1006.3hPa Calm     81% 0.00in /  0mm
13:19 56.4 °F /  13.6 °C 51.0 °F /  10.6 °C 29.72in /  1006.3hPa Calm     82% 0.00in /  0mm
13:24 56.5 °F /  13.6 °C 50.7 °F /  10.4 °C 29.71in /  1006hPa Calm     81% 0.00in /  0mm
13:29 57.0 °F /  13.9 °C 50.9 °F /  10.5 °C 29.71in /  1006hPa NE 1.0mph /  1.6km/h 4.0mph /  6.4km/h 80% 0.00in /  0mm
13:34 57.5 °F /  14.2 °C 51.4 °F /  10.8 °C 29.71in /  1006hPa East 1.0mph /  1.6km/h 4.0mph /  6.4km/h 80% 0.00in /  0mm
13:39 57.5 °F /  14.2 °C 51.7 °F /  10.9 °C 29.71in /  1006hPa SSE 1.0mph /  1.6km/h 2.0mph /  3.2km/h 81% 0.00in /  0mm
13:44 57.8 °F /  14.3 °C 51.3 °F /  10.7 °C 29.71in /  1006hPa East 1.0mph /  1.6km/h 3.0mph /  4.8km/h 79% 0.00in /  0mm
13:49 58.1 °F /  14.5 °C 51.6 °F /  10.9 °C 29.71in /  1006hPa ESE 1.0mph /  1.6km/h 3.0mph /  4.8km/h 79% 0.00in /  0mm
13:54 58.4 °F /  14.7 °C 51.9 °F /  11.1 °C 29.71in /  1006hPa ESE 1.0mph /  1.6km/h 5.0mph /  8km/h 79% 0.00in /  0mm
13:59 58.3 °F /  14.6 °C 51.8 °F /  11 °C 29.71in /  1006hPa SE 2.0mph /  3.2km/h 3.0mph /  4.8km/h 79% 0.00in /  0mm
14:04 58.2 °F /  14.6 °C 51.4 °F /  10.8 °C 29.71in /  1006hPa Calm   2.0mph /  3.2km/h 78% 0.00in /  0mm
14:09 58.4 °F /  14.7 °C 51.6 °F /  10.9 °C 29.71in /  1006hPa NE 2.0mph /  3.2km/h 3.0mph /  4.8km/h 78% 0.00in /  0mm
14:14 58.4 °F /  14.7 °C 51.9 °F /  11.1 °C 29.71in /  1006hPa SE 3.0mph /  4.8km/h 3.0mph /  4.8km/h 79% 0.00in /  0mm
14:19 58.6 °F /  14.8 °C 52.1 °F /  11.2 °C 29.70in /  1005.6hPa Calm   3.0mph /  4.8km/h 79% 0.00in /  0mm
14:24 58.7 °F /  14.8 °C 52.2 °F /  11.2 °C 29.70in /  1005.6hPa ENE 2.0mph /  3.2km/h 5.0mph /  8km/h 79% 0.00in /  0mm
14:29 59.6 °F /  15.3 °C 52.4 °F /  11.3 °C 29.70in /  1005.6hPa East 1.0mph /  1.6km/h 5.0mph /  8km/h 77% 0.00in /  0mm
14:34 59.6 °F /  15.3 °C 51.7 °F /  10.9 °C 29.70in /  1005.6hPa ESE 2.0mph /  3.2km/h 5.0mph /  8km/h 75% 0.00in /  0mm
14:39 59.7 °F /  15.4 °C 51.8 °F /  11 °C 29.70in /  1005.6hPa SE 2.0mph /  3.2km/h 6.0mph /  9.7km/h 75% 0.00in /  0mm
14:44 59.8 °F /  15.4 °C 51.5 °F /  10.8 °C 29.70in /  1005.6hPa ESE 2.0mph /  3.2km/h 6.0mph /  9.7km/h 74% 0.00in /  0mm
14:49 60.7 °F /  15.9 °C 52.4 °F /  11.3 °C 29.70in /  1005.6hPa ESE 2.0mph /  3.2km/h 5.0mph /  8km/h 74% 0.00in /  0mm
14:54 60.7 °F /  15.9 °C 52.4 °F /  11.3 °C 29.69in /  1005.3hPa SE 2.0mph /  3.2km/h 5.0mph /  8km/h 74% 0.00in /  0mm
14:59 60.6 °F /  15.9 °C 51.1 °F /  10.6 °C 29.69in /  1005.3hPa South 2.0mph /  3.2km/h 7.0mph /  11.3km/h 71% 0.00in /  0mm
15:04 60.6 °F /  15.9 °C 51.1 °F /  10.6 °C 29.69in /  1005.3hPa SSE 1.0mph /  1.6km/h 5.0mph /  8km/h 71% 0.00in /  0mm
15:09 60.9 °F /  16.1 °C 51.8 °F /  11 °C 29.69in /  1005.3hPa Calm   3.0mph /  4.8km/h 72% 0.00in /  0mm
15:14 60.3 °F /  15.7 °C 51.2 °F /  10.7 °C 29.69in /  1005.3hPa ESE 1.0mph /  1.6km/h 5.0mph /  8km/h 72% 0.00in /  0mm
15:19 60.0 °F /  15.6 °C 51.3 °F /  10.7 °C 29.69in /  1005.3hPa Calm   3.0mph /  4.8km/h 73% 0.00in /  0mm
15:24 59.7 °F /  15.4 °C 51.0 °F /  10.6 °C 29.69in /  1005.3hPa East 2.0mph /  3.2km/h 5.0mph /  8km/h 73% 0.00in /  0mm
15:29 59.6 °F /  15.3 °C 50.9 °F /  10.5 °C 29.69in /  1005.3hPa Calm   3.0mph /  4.8km/h 73% 0.00in /  0mm
15:34 59.6 °F /  15.3 °C 50.9 °F /  10.5 °C 29.69in /  1005.3hPa ESE 1.0mph /  1.6km/h 3.0mph /  4.8km/h 73% 0.00in /  0mm
15:39 59.6 °F /  15.3 °C 50.9 °F /  10.5 °C 29.69in /  1005.3hPa East 1.0mph /  1.6km/h 3.0mph /  4.8km/h 73% 0.00in /  0mm
15:44 59.5 °F /  15.3 °C 50.8 °F /  10.4 °C 29.69in /  1005.3hPa ENE 1.0mph /  1.6km/h 3.0mph /  4.8km/h 73% 0.00in /  0mm
15:49 59.6 °F /  15.3 °C 50.9 °F /  10.5 °C 29.69in /  1005.3hPa Calm   3.0mph /  4.8km/h 73% 0.00in /  0mm
15:54 59.4 °F /  15.2 °C 51.1 °F /  10.6 °C 29.69in /  1005.3hPa Calm   2.0mph /  3.2km/h 74% 0.00in /  0mm
15:59 59.0 °F /  15 °C 50.7 °F /  10.4 °C 29.69in /  1005.3hPa Calm     74% 0.00in /  0mm
16:04 58.8 °F /  14.9 °C 50.5 °F /  10.3 °C 29.69in /  1005.3hPa Calm     74% 0.00in /  0mm
16:09 58.4 °F /  14.7 °C 50.5 °F /  10.3 °C 29.69in /  1005.3hPa Calm     75% 0.00in /  0mm
16:14 58.1 °F /  14.5 °C 50.6 °F /  10.3 °C 29.69in /  1005.3hPa Calm     76% 0.00in /  0mm
16:19 57.9 °F /  14.4 °C 50.4 °F /  10.2 °C 29.69in /  1005.3hPa NE 2.0mph /  3.2km/h 3.0mph /  4.8km/h 76% 0.00in /  0mm
16:24 57.7 °F /  14.3 °C 50.2 °F /  10.1 °C 29.68in /  1005hPa NE 2.0mph /  3.2km/h 3.0mph /  4.8km/h 76% 0.00in /  0mm
16:29 57.4 °F /  14.1 °C 50.2 °F /  10.1 °C 29.68in /  1005hPa NE 2.0mph /  3.2km/h 3.0mph /  4.8km/h 77% 0.00in /  0mm
16:34 57.2 °F /  14 °C 50.1 °F /  10.1 °C 29.68in /  1005hPa NE 1.0mph /  1.6km/h 4.0mph /  6.4km/h 77% 0.00in /  0mm
16:39 56.8 °F /  13.8 °C 50.0 °F /  10 °C 29.68in /  1005hPa NE 2.0mph /  3.2km/h 4.0mph /  6.4km/h 78% 0.00in /  0mm
16:44 56.7 °F /  13.7 °C 49.9 °F /  9.9 °C 29.68in /  1005hPa NE 2.0mph /  3.2km/h 4.0mph /  6.4km/h 78% 0.00in /  0mm
16:49 56.5 °F /  13.6 °C 49.7 °F /  9.8 °C 29.68in /  1005hPa NE 2.0mph /  3.2km/h 4.0mph /  6.4km/h 78% 0.00in /  0mm
16:54 56.3 °F /  13.5 °C 49.9 °F /  9.9 °C 29.68in /  1005hPa NE 2.0mph /  3.2km/h 4.0mph /  6.4km/h 79% 0.00in /  0mm
16:59 56.0 °F /  13.3 °C 49.6 °F /  9.8 °C 29.68in /  1005hPa NE 1.0mph /  1.6km/h 4.0mph /  6.4km/h 79% 0.00in /  0mm
17:04 55.9 °F /  13.3 °C 49.8 °F /  9.9 °C 29.68in /  1005hPa NE 1.0mph /  1.6km/h 3.0mph /  4.8km/h 80% 0.00in /  0mm
17:09 55.7 °F /  13.2 °C 50.0 °F /  10 °C 29.68in /  1005hPa NE 2.0mph /  3.2km/h 3.0mph /  4.8km/h 81% 0.00in /  0mm
17:14 55.7 °F /  13.2 °C 50.0 °F /  10 °C 29.68in /  1005hPa NE 1.0mph /  1.6km/h 4.0mph /  6.4km/h 81% 0.00in /  0mm
17:19 55.5 °F /  13.1 °C 50.1 °F /  10.1 °C 29.68in /  1005hPa NE 1.0mph /  1.6km/h 3.0mph /  4.8km/h 82% 0.00in /  0mm
17:24 55.4 °F /  13 °C 50.0 °F /  10 °C 29.68in /  1005hPa NE 2.0mph /  3.2km/h 3.0mph /  4.8km/h 82% 0.00in /  0mm
17:29 55.2 °F /  12.9 °C 49.8 °F /  9.9 °C 29.68in /  1005hPa NE 1.0mph /  1.6km/h 3.0mph /  4.8km/h 82% 0.00in /  0mm
17:34 55.0 °F /  12.8 °C 49.9 °F /  9.9 °C 29.68in /  1005hPa Calm   3.0mph /  4.8km/h 83% 0.00in /  0mm
17:39 54.9 °F /  12.7 °C 49.8 °F /  9.9 °C 29.68in /  1005hPa NNE 1.0mph /  1.6km/h 3.0mph /  4.8km/h 83% 0.00in /  0mm
17:44 54.7 °F /  12.6 °C 49.6 °F /  9.8 °C 29.68in /  1005hPa Calm   2.0mph /  3.2km/h 83% 0.00in /  0mm
17:49 54.3 °F /  12.4 °C 49.6 °F /  9.8 °C 29.68in /  1005hPa NNE 1.0mph /  1.6km/h 2.0mph /  3.2km/h 84% 0.00in /  0mm
17:54 54.4 °F /  12.4 °C 49.7 °F /  9.8 °C 29.68in /  1005hPa North 1.0mph /  1.6km/h 3.0mph /  4.8km/h 84% 0.00in /  0mm
17:59 54.7 °F /  12.6 °C 49.6 °F /  9.8 °C 29.69in /  1005.3hPa NE 1.0mph /  1.6km/h 3.0mph /  4.8km/h 83% 0.00in /  0mm
18:04 54.9 °F /  12.7 °C 49.8 °F /  9.9 °C 29.68in /  1005hPa NE 1.0mph /  1.6km/h 3.0mph /  4.8km/h 83% 0.00in /  0mm
18:09 54.9 °F /  12.7 °C 49.5 °F /  9.7 °C 29.69in /  1005.3hPa NE 1.0mph /  1.6km/h 3.0mph /  4.8km/h 82% 0.00in /  0mm
18:14 54.9 °F /  12.7 °C 49.5 °F /  9.7 °C 29.68in /  1005hPa ENE 2.0mph /  3.2km/h 3.0mph /  4.8km/h 82% 0.00in /  0mm
18:19 54.7 °F /  12.6 °C 49.3 °F /  9.6 °C 29.68in /  1005hPa Calm   1.0mph /  1.6km/h 82% 0.00in /  0mm
18:24 54.6 °F /  12.6 °C 49.2 °F /  9.6 °C 29.69in /  1005.3hPa Calm     82% 0.00in /  0mm
18:29 54.6 °F /  12.6 °C 49.2 °F /  9.6 °C 29.68in /  1005hPa Calm     82% 0.00in /  0mm
18:34 54.3 °F /  12.4 °C 48.9 °F /  9.4 °C 29.69in /  1005.3hPa Calm     82% 0.00in /  0mm
18:39 53.9 °F /  12.2 °C 48.9 °F /  9.4 °C 29.69in /  1005.3hPa Calm     83% 0.00in /  0mm
18:44 53.6 °F /  12 °C 48.9 °F /  9.4 °C 29.69in /  1005.3hPa Calm     84% 0.00in /  0mm
18:49 53.2 °F /  11.8 °C 48.5 °F /  9.2 °C 29.69in /  1005.3hPa Calm     84% 0.00in /  0mm
18:54 53.0 °F /  11.7 °C 48.9 °F /  9.4 °C 29.69in /  1005.3hPa Calm     86% 0.00in /  0mm
18:59 53.1 °F /  11.7 °C 48.7 °F /  9.3 °C 29.69in /  1005.3hPa Calm     85% 0.00in /  0mm
19:04 53.3 °F /  11.8 °C 48.9 °F /  9.4 °C 29.69in /  1005.3hPa Calm     85% 0.00in /  0mm
19:09 52.7 °F /  11.5 °C 48.3 °F /  9.1 °C 29.69in /  1005.3hPa Calm     85% 0.00in /  0mm
19:14 52.3 °F /  11.3 °C 48.2 °F /  9 °C 29.69in /  1005.3hPa Calm     86% 0.00in /  0mm
19:19 52.0 °F /  11.1 °C 48.3 °F /  9.1 °C 29.69in /  1005.3hPa Calm     87% 0.00in /  0mm
19:24 51.8 °F /  11 °C 48.1 °F /  8.9 °C 29.70in /  1005.6hPa Calm     87% 0.00in /  0mm
19:29 51.3 °F /  10.7 °C 47.6 °F /  8.7 °C 29.70in /  1005.6hPa Calm     87% 0.00in /  0mm
19:34 51.1 °F /  10.6 °C 47.7 °F /  8.7 °C 29.70in /  1005.6hPa Calm     88% 0.00in /  0mm
19:39 51.0 °F /  10.6 °C 47.9 °F /  8.8 °C 29.69in /  1005.3hPa Calm     89% 0.00in /  0mm
19:44 51.1 °F /  10.6 °C 48.0 °F /  8.9 °C 29.70in /  1005.6hPa Calm     89% 0.00in /  0mm
19:49 51.0 °F /  10.6 °C 47.9 °F /  8.8 °C 29.69in /  1005.3hPa Calm     89% 0.00in /  0mm
19:54 50.8 °F /  10.4 °C 47.7 °F /  8.7 °C 29.69in /  1005.3hPa Calm     89% 0.00in /  0mm
19:59 50.9 °F /  10.5 °C 48.1 °F /  8.9 °C 29.69in /  1005.3hPa Calm     90% 0.00in /  0mm
20:04 50.7 °F /  10.4 °C 47.9 °F /  8.8 °C 29.69in /  1005.3hPa Calm     90% 0.00in /  0mm
20:09 50.6 °F /  10.3 °C 47.8 °F /  8.8 °C 29.69in /  1005.3hPa Calm     90% 0.00in /  0mm
20:14 50.5 °F /  10.3 °C 47.7 °F /  8.7 °C 29.69in /  1005.3hPa Calm     90% 0.00in /  0mm
20:19 50.4 °F /  10.2 °C 47.6 °F /  8.7 °C 29.69in /  1005.3hPa Calm     90% 0.00in /  0mm
20:24 50.1 °F /  10.1 °C 47.3 °F /  8.5 °C 29.69in /  1005.3hPa Calm     90% 0.00in /  0mm
20:29 50.0 °F /  10 °C 47.5 °F /  8.6 °C 29.69in /  1005.3hPa Calm     91% 0.00in /  0mm
20:34 50.0 °F /  10 °C 47.5 °F /  8.6 °C 29.69in /  1005.3hPa Calm     91% 0.00in /  0mm
20:39 49.8 °F /  9.9 °C 47.3 °F /  8.5 °C 29.69in /  1005.3hPa Calm     91% 0.00in /  0mm
20:44 49.7 °F /  9.8 °C 47.2 °F /  8.4 °C 29.69in /  1005.3hPa Calm     91% 0.00in /  0mm
20:49 49.5 °F /  9.7 °C 47.0 °F /  8.3 °C 29.69in /  1005.3hPa Calm     91% 0.00in /  0mm
20:54 49.4 °F /  9.7 °C 47.2 °F /  8.4 °C 29.69in /  1005.3hPa Calm     92% 0.00in /  0mm
20:59 49.4 °F /  9.7 °C 47.2 °F /  8.4 °C 29.69in /  1005.3hPa Calm     92% 0.00in /  0mm
21:04 49.2 °F /  9.6 °C 47.0 °F /  8.3 °C 29.69in /  1005.3hPa Calm     92% 0.00in /  0mm
21:09 49.2 °F /  9.6 °C 47.0 °F /  8.3 °C 29.70in /  1005.6hPa Calm     92% 0.00in /  0mm
21:14 49.2 °F /  9.6 °C 47.0 °F /  8.3 °C 29.70in /  1005.6hPa Calm     92% 0.00in /  0mm
21:19 49.2 °F /  9.6 °C 47.0 °F /  8.3 °C 29.70in /  1005.6hPa Calm     92% 0.00in /  0mm
21:24 49.2 °F /  9.6 °C 47.0 °F /  8.3 °C 29.70in /  1005.6hPa Calm     92% 0.00in /  0mm
21:29 49.2 °F /  9.6 °C 47.3 °F /  8.5 °C 29.70in /  1005.6hPa Calm     93% 0.00in /  0mm
21:34 49.1 °F /  9.5 °C 47.2 °F /  8.4 °C 29.70in /  1005.6hPa Calm     93% 0.00in /  0mm
21:39 49.1 °F /  9.5 °C 47.2 °F /  8.4 °C 29.70in /  1005.6hPa Calm     93% 0.00in /  0mm
21:44 49.0 °F /  9.4 °C 46.8 °F /  8.2 °C 29.69in /  1005.3hPa Calm     92% 0.00in /  0mm
21:49 49.0 °F /  9.4 °C 47.1 °F /  8.4 °C 29.69in /  1005.3hPa Calm     93% 0.00in /  0mm
21:54 49.0 °F /  9.4 °C 47.1 °F /  8.4 °C 29.69in /  1005.3hPa Calm     93% 0.00in /  0mm
21:59 49.0 °F /  9.4 °C 47.1 °F /  8.4 °C 29.68in /  1005hPa Calm     93% 0.00in /  0mm
22:04 49.2 °F /  9.6 °C 47.3 °F /  8.5 °C 29.68in /  1005hPa Calm     93% 0.00in /  0mm
22:09 49.0 °F /  9.4 °C 47.1 °F /  8.4 °C 29.68in /  1005hPa Calm     93% 0.00in /  0mm
22:14 48.9 °F /  9.4 °C 47.0 °F /  8.3 °C 29.68in /  1005hPa Calm     93% 0.00in /  0mm
22:19 48.5 °F /  9.2 °C 46.3 °F /  7.9 °C 29.68in /  1005hPa Calm     92% 0.00in /  0mm
22:24 48.1 °F /  8.9 °C 46.2 °F /  7.9 °C 29.68in /  1005hPa Calm     93% 0.00in /  0mm
22:29 47.9 °F /  8.8 °C 46.0 °F /  7.8 °C 29.68in /  1005hPa Calm     93% 0.00in /  0mm
22:34 47.8 °F /  8.8 °C 45.9 °F /  7.7 °C 29.68in /  1005hPa Calm     93% 0.00in /  0mm
22:39 48.0 °F /  8.9 °C 46.1 °F /  7.8 °C 29.68in /  1005hPa Calm     93% 0.00in /  0mm
22:44 47.7 °F /  8.7 °C 45.8 °F /  7.7 °C 29.68in /  1005hPa Calm     93% 0.00in /  0mm
22:49 47.1 °F /  8.4 °C 45.2 °F /  7.3 °C 29.68in /  1005hPa Calm     93% 0.00in /  0mm
22:54 46.8 °F /  8.2 °C 44.9 °F /  7.2 °C 29.68in /  1005hPa Calm     93% 0.00in /  0mm
22:59 46.7 °F /  8.2 °C 44.8 °F /  7.1 °C 29.68in /  1005hPa Calm     93% 0.00in /  0mm
23:04 46.5 °F /  8.1 °C 44.6 °F /  7 °C 29.68in /  1005hPa Calm     93% 0.00in /  0mm
23:09 46.4 °F /  8 °C 44.8 °F /  7.1 °C 29.68in /  1005hPa Calm     94% 0.00in /  0mm
23:14 46.1 °F /  7.8 °C 44.5 °F /  6.9 °C 29.68in /  1005hPa Calm     94% 0.00in /  0mm
23:19 46.0 °F /  7.8 °C 44.4 °F /  6.9 °C 29.68in /  1005hPa Calm     94% 0.00in /  0mm
23:24 46.0 °F /  7.8 °C 44.4 °F /  6.9 °C 29.68in /  1005hPa Calm     94% 0.00in /  0mm
23:29 46.0 °F /  7.8 °C 44.4 °F /  6.9 °C 29.68in /  1005hPa Calm     94% 0.00in /  0mm
23:34 45.9 °F /  7.7 °C 44.3 °F /  6.8 °C 29.67in /  1004.6hPa Calm     94% 0.00in /  0mm
23:39 45.8 °F /  7.7 °C 44.2 °F /  6.8 °C 29.68in /  1005hPa Calm     94% 0.00in /  0mm
23:44 46.3 °F /  7.9 °C 44.9 °F /  7.2 °C 29.68in /  1005hPa Calm     95% 0.00in /  0mm
23:49 46.5 °F /  8.1 °C 45.1 °F /  7.3 °C 29.68in /  1005hPa Calm     95% 0.00in /  0mm
23:54 46.2 °F /  7.9 °C 44.6 °F /  7 °C 29.68in /  1005hPa Calm     94% 0.00in /  0mm
23:59 46.3 °F /  7.9 °C 44.9 °F /  7.2 °C 29.68in /  1005hPa Calm     95% 0.00in /  0mm
Buffalo, New York, USA
Compliments of Weather Underground - 2.5 mb